Aegean Tiffany — SVAE9 — position and weather

sailwx.info

Track history (hours):
 
Tides and Currents Weather Stations Pressure Air Temp Water Temp Dewpoint Dewpoint Depression Visibility Wind Speed Wind Dir Waves Ship Positions

Aegean Tiffany

Last reported at 2016-May-26 03:22 UTC. Time now 2016-May-29 07:47 UTC.
Position N 38°10' E 022°34'.

Length 80 m; draft 5.6 m.

Type: Tanker. MMSI: 240870000.

Date/timePositionNaut miles runAvg speedWind from/ knotsBaromVisibWave heightAir tempDewpointWater temp
2016-May-26 03:22N 38°10' E 022°34'25 6.5
2016-May-25 23:26N 37°55' E 023°00'5 6.0
2016-May-25 22:33N 37°55' E 023°07'7 7.2
2016-May-25 21:33N 37°56' E 023°16'7 7.4
2016-May-25 20:33N 37°58' E 023°25'6 5.5
2016-May-25 19:33N 38°01' E 023°30'2 1.8
2016-May-25 18:33N 38°02' E 023°32'0 0.0
2016-May-25 02:12N 38°02' E 023°32'0 0.0
2016-May-25 01:33N 38°02' E 023°32'1 0.9
2016-May-25 00:33N 38°02' E 023°31'0 0.2
2016-May-24 23:33N 38°02' E 023°31'0 0.0
2016-May-24 22:33N 38°02' E 023°31'0 0.0
2016-May-24 21:33N 38°02' E 023°31'0 0.0
2016-May-24 20:33N 38°02' E 023°31'0 0.0
2016-May-24 19:34N 38°02' E 023°31'0 0.0
2016-May-24 18:33N 38°02' E 023°31'0 0.0
2016-May-24 17:33N 38°02' E 023°31'4 4.0
2016-May-24 16:33N 38°02' E 023°36'0 0.1
2016-May-24 15:33N 38°02' E 023°36'0 0.0
2016-May-24 14:34N 38°02' E 023°36'0 0.0
2016-May-24 13:34N 38°02' E 023°36'0 0.0
2016-May-24 12:33N 38°02' E 023°36'0 0.0
2016-May-24 11:33N 38°02' E 023°36'0 0.0
2016-May-24 10:33N 38°02' E 023°36'0 0.4
2016-May-24 09:33N 38°02' E 023°35'3 2.6
2016-May-24 08:33N 38°02' E 023°32'0 0.0
2016-May-23 08:13N 38°02' E 023°32'0 0.0
2016-May-23 07:33N 38°02' E 023°32'0 0.0
2016-May-23 06:34N 38°02' E 023°32'0 0.0
2016-May-23 05:34N 38°02' E 023°32'0 0.0
2016-May-23 04:33N 38°02' E 023°32'0 0.0
2016-May-23 03:33N 38°02' E 023°32'0 0.0
2016-May-23 02:33N 38°02' E 023°32'0 0.0
2016-May-23 01:34N 38°02' E 023°32'1 0.8
2016-May-23 00:33N 38°02' E 023°31'6 6.4
2016-May-22 23:34N 37°58' E 023°25'8 8.4
2016-May-22 22:33N 37°56' E 023°15'9 8.3
2016-May-22 21:32N 37°55' E 023°04'15 6.6
2016-May-22 19:11N 38°03' E 022°47'  
2016-May-19 04:13N 38°14' E 022°18'15 7.8
2016-May-19 02:15N 38°09' E 022°37'25 6.9
2016-May-18 22:33N 37°55' E 023°03'8 8.0
2016-May-18 21:33N 37°56' E 023°13'8 7.9
2016-May-18 20:33N 37°57' E 023°23'6 5.9
2016-May-18 19:33N 38°01' E 023°29'3 0.2
2016-May-18 05:33N 38°02' E 023°32'0 0.0
2016-May-18 04:33N 38°02' E 023°32'0 0.0
2016-May-18 03:33N 38°02' E 023°32'0 0.0
2016-May-18 02:33N 38°02' E 023°32'1 0.8
2016-May-18 01:33N 38°02' E 023°31'0 0.3
2016-May-18 00:33N 38°02' E 023°31'0 0.0
2016-May-17 23:33N 38°02' E 023°31'0 0.0
2016-May-17 22:33N 38°02' E 023°31'0 0.0
2016-May-17 21:33N 38°02' E 023°31'0 0.0
2016-May-17 20:33N 38°02' E 023°31'0 0.0
2016-May-17 19:33N 38°02' E 023°31'0 0.0
2016-May-17 18:33N 38°02' E 023°31'0 0.0
2016-May-17 17:34N 38°02' E 023°31'0 0.0
2016-May-17 16:33N 38°02' E 023°31'0 0.1
2016-May-17 15:33N 38°02' E 023°31'4 3.9
2016-May-17 14:34N 38°02' E 023°36'0 0.0
2016-May-17 13:33N 38°02' E 023°36'0 0.0
2016-May-17 12:33N 38°02' E 023°36'0 0.0
2016-May-17 11:34N 38°02' E 023°36'0 0.0
2016-May-17 10:33N 38°02' E 023°36'0 0.0
2016-May-17 09:33N 38°02' E 023°36'1 0.6
2016-May-17 08:33N 38°02' E 023°35'0 0.1
2016-May-17 07:33N 38°02' E 023°35'3 0.2
2016-May-16 18:33N 38°02' E 023°32'6 6.4
2016-May-16 17:33N 37°57' E 023°36'1 0.5
2016-May-16 16:33N 37°57' E 023°37'0 0.0
2016-May-16 15:33N 37°57' E 023°37'0 0.0
2016-May-16 14:33N 37°57' E 023°37'0 0.0
2016-May-16 13:33N 37°57' E 023°37'0 0.0
2016-May-16 12:34N 37°57' E 023°37'3 3.3
2016-May-16 11:33N 37°58' E 023°33'5 4.6
2016-May-16 10:33N 38°02' E 023°32'1 1.1
2016-May-16 09:33N 38°02' E 023°31'6 6.2
2016-May-16 08:33N 37°58' E 023°25'8 8.4
2016-May-16 07:33N 37°55' E 023°15'10 8.7
2016-May-16 06:26N 37°54' E 023°02'  
Track history (hours):
 
Tides and Currents Weather Stations Pressure Air Temp Water Temp Dewpoint Dewpoint Depression Visibility Wind Speed Wind Dir Waves Ship Positions

Aegean Tiffany

Last reported at 2016-May-26 03:22 UTC. Time now 2016-May-29 07:47 UTC.
Position N 38°10' E 022°34'.

Length 80 m; draft 5.6 m.

Type: Tanker. MMSI: 240870000.

Date/timePositionNaut miles runAvg speedWind from/ knotsBaromVisibWave heightAir tempDewpointWater temp
2016-May-26 03:22N 38°10' E 022°34'25 6.5
2016-May-25 23:26N 37°55' E 023°00'5 6.0
2016-May-25 22:33N 37°55' E 023°07'7 7.2
2016-May-25 21:33N 37°56' E 023°16'7 7.4
2016-May-25 20:33N 37°58' E 023°25'6 5.5
2016-May-25 19:33N 38°01' E 023°30'2 1.8
2016-May-25 18:33N 38°02' E 023°32'0 0.0
2016-May-25 02:12N 38°02' E 023°32'0 0.0
2016-May-25 01:33N 38°02' E 023°32'1 0.9
2016-May-25 00:33N 38°02' E 023°31'0 0.2
2016-May-24 23:33N 38°02' E 023°31'0 0.0
2016-May-24 22:33N 38°02' E 023°31'0 0.0
2016-May-24 21:33N 38°02' E 023°31'0 0.0
2016-May-24 20:33N 38°02' E 023°31'0 0.0
2016-May-24 19:34N 38°02' E 023°31'0 0.0
2016-May-24 18:33N 38°02' E 023°31'0 0.0
2016-May-24 17:33N 38°02' E 023°31'4 4.0
2016-May-24 16:33N 38°02' E 023°36'0 0.1
2016-May-24 15:33N 38°02' E 023°36'0 0.0
2016-May-24 14:34N 38°02' E 023°36'0 0.0
2016-May-24 13:34N 38°02' E 023°36'0 0.0
2016-May-24 12:33N 38°02' E 023°36'0 0.0
2016-May-24 11:33N 38°02' E 023°36'0 0.0
2016-May-24 10:33N 38°02' E 023°36'0 0.4
2016-May-24 09:33N 38°02' E 023°35'3 2.6
2016-May-24 08:33N 38°02' E 023°32'0 0.0
2016-May-23 08:13N 38°02' E 023°32'0 0.0
2016-May-23 07:33N 38°02' E 023°32'0 0.0
2016-May-23 06:34N 38°02' E 023°32'0 0.0
2016-May-23 05:34N 38°02' E 023°32'0 0.0
2016-May-23 04:33N 38°02' E 023°32'0 0.0
2016-May-23 03:33N 38°02' E 023°32'0 0.0
2016-May-23 02:33N 38°02' E 023°32'0 0.0
2016-May-23 01:34N 38°02' E 023°32'1 0.8
2016-May-23 00:33N 38°02' E 023°31'6 6.4
2016-May-22 23:34N 37°58' E 023°25'8 8.4
2016-May-22 22:33N 37°56' E 023°15'9 8.3
2016-May-22 21:32N 37°55' E 023°04'15 6.6
2016-May-22 19:11N 38°03' E 022°47'  
2016-May-19 04:13N 38°14' E 022°18'15 7.8
2016-May-19 02:15N 38°09' E 022°37'25 6.9
2016-May-18 22:33N 37°55' E 023°03'8 8.0
2016-May-18 21:33N 37°56' E 023°13'8 7.9
2016-May-18 20:33N 37°57' E 023°23'6 5.9
2016-May-18 19:33N 38°01' E 023°29'3 0.2
2016-May-18 05:33N 38°02' E 023°32'0 0.0
2016-May-18 04:33N 38°02' E 023°32'0 0.0
2016-May-18 03:33N 38°02' E 023°32'0 0.0
2016-May-18 02:33N 38°02' E 023°32'1 0.8
2016-May-18 01:33N 38°02' E 023°31'0 0.3
2016-May-18 00:33N 38°02' E 023°31'0 0.0
2016-May-17 23:33N 38°02' E 023°31'0 0.0
2016-May-17 22:33N 38°02' E 023°31'0 0.0
2016-May-17 21:33N 38°02' E 023°31'0 0.0
2016-May-17 20:33N 38°02' E 023°31'0 0.0
2016-May-17 19:33N 38°02' E 023°31'0 0.0
2016-May-17 18:33N 38°02' E 023°31'0 0.0
2016-May-17 17:34N 38°02' E 023°31'0 0.0
2016-May-17 16:33N 38°02' E 023°31'0 0.1
2016-May-17 15:33N 38°02' E 023°31'4 3.9
2016-May-17 14:34N 38°02' E 023°36'0 0.0
2016-May-17 13:33N 38°02' E 023°36'0 0.0
2016-May-17 12:33N 38°02' E 023°36'0 0.0
2016-May-17 11:34N 38°02' E 023°36'0 0.0
2016-May-17 10:33N 38°02' E 023°36'0 0.0
2016-May-17 09:33N 38°02' E 023°36'1 0.6
2016-May-17 08:33N 38°02' E 023°35'0 0.1
2016-May-17 07:33N 38°02' E 023°35'3 0.2
2016-May-16 18:33N 38°02' E 023°32'6 6.4
2016-May-16 17:33N 37°57' E 023°36'1 0.5
2016-May-16 16:33N 37°57' E 023°37'0 0.0
2016-May-16 15:33N 37°57' E 023°37'0 0.0
2016-May-16 14:33N 37°57' E 023°37'0 0.0
2016-May-16 13:33N 37°57' E 023°37'0 0.0
2016-May-16 12:34N 37°57' E 023°37'3 3.3
2016-May-16 11:33N 37°58' E 023°33'5 4.6
2016-May-16 10:33N 38°02' E 023°32'1 1.1
2016-May-16 09:33N 38°02' E 023°31'6 6.2
2016-May-16 08:33N 37°58' E 023°25'8 8.4
2016-May-16 07:33N 37°55' E 023°15'10 8.7
2016-May-16 06:26N 37°54' E 023°02'  

Dump ship's entire track history